createdAt,value
2017-05-10T00:00:08.130Z,8.10
2017-05-10T00:02:35.050Z,8.20
2017-05-10T00:05:03.484Z,8.20
2017-05-10T00:07:30.206Z,8.20
2017-05-10T00:09:56.893Z,8.20
2017-05-10T00:14:54.684Z,8.20
2017-05-10T00:17:22.692Z,8.10
2017-05-10T00:19:49.863Z,8.00
2017-05-10T00:22:17.650Z,7.80
2017-05-10T00:24:44.752Z,7.80
2017-05-10T00:27:11.606Z,7.80
2017-05-10T00:29:38.707Z,7.80
2017-05-10T00:32:06.009Z,7.80
2017-05-10T00:34:34.843Z,7.90
2017-05-10T00:37:06.014Z,7.90
2017-05-10T00:39:33.249Z,7.60
2017-05-10T00:42:00.068Z,7.60
2017-05-10T00:44:28.382Z,7.60
2017-05-10T00:46:55.596Z,7.50
2017-05-10T00:49:25.144Z,7.50
2017-05-10T00:51:52.103Z,7.50
2017-05-10T00:54:18.482Z,7.40
2017-05-10T00:56:45.693Z,7.50
2017-05-10T00:59:18.191Z,7.40
2017-05-10T01:01:45.387Z,7.40
2017-05-10T01:04:12.137Z,7.40
2017-05-10T01:06:39.307Z,7.40
2017-05-10T01:09:06.524Z,7.30
2017-05-10T01:11:34.149Z,7.10
2017-05-10T01:14:01.620Z,7.00
2017-05-10T01:16:28.672Z,7.00
2017-05-10T01:18:55.716Z,7.10
2017-05-10T01:21:22.968Z,7.20
2017-05-10T01:23:49.792Z,7.20
2017-05-10T01:26:17.489Z,7.20
2017-05-10T01:28:44.320Z,7.20
2017-05-10T01:31:11.815Z,7.20
2017-05-10T01:33:38.725Z,7.20
2017-05-10T01:36:07.288Z,7.20
2017-05-10T01:38:33.965Z,7.20
2017-05-10T01:41:00.935Z,7.10
2017-05-10T01:43:28.115Z,7.00
2017-05-10T01:45:55.343Z,7.00
2017-05-10T01:48:22.004Z,7.00
2017-05-10T01:50:49.166Z,7.00
2017-05-10T01:53:16.400Z,7.00
2017-05-10T01:55:42.821Z,7.00
2017-05-10T01:58:10.253Z,7.00
2017-05-10T02:00:37.355Z,7.00
2017-05-10T02:03:04.929Z,6.90
2017-05-10T02:05:32.539Z,6.90
2017-05-10T02:08:00.075Z,6.70
2017-05-10T02:10:27.615Z,6.70
2017-05-10T02:12:54.596Z,6.70
2017-05-10T02:15:23.307Z,6.70
2017-05-10T02:17:50.987Z,6.70
2017-05-10T02:20:19.212Z,6.60
2017-05-10T02:22:46.979Z,6.60
2017-05-10T02:25:14.460Z,6.60
2017-05-10T02:27:41.337Z,6.70
2017-05-10T02:30:08.141Z,6.70
2017-05-10T02:32:35.253Z,6.60
2017-05-10T02:35:02.889Z,6.60
2017-05-10T02:37:30.003Z,6.50
2017-05-10T02:39:56.900Z,6.50
2017-05-10T02:42:24.329Z,6.60
2017-05-10T02:44:51.156Z,6.50
2017-05-10T02:47:18.661Z,6.60
2017-05-10T02:49:45.456Z,6.70
2017-05-10T02:52:12.738Z,6.60
2017-05-10T02:54:41.180Z,6.60
2017-05-10T02:57:08.340Z,6.60
2017-05-10T02:59:35.733Z,6.60
2017-05-10T03:02:02.489Z,6.60
2017-05-10T03:04:29.535Z,6.50
2017-05-10T03:06:56.589Z,6.50
2017-05-10T03:09:24.616Z,6.60
2017-05-10T03:11:51.848Z,6.50
2017-05-10T03:14:18.830Z,6.50
2017-05-10T03:16:45.516Z,6.50
2017-05-10T03:19:12.568Z,6.40
2017-05-10T03:21:39.996Z,6.40
2017-05-10T03:24:06.778Z,6.40
2017-05-10T03:26:34.553Z,6.30
2017-05-10T03:29:01.805Z,6.30
2017-05-10T03:31:28.633Z,6.40
2017-05-10T03:33:55.703Z,6.40
2017-05-10T03:36:22.548Z,6.30
2017-05-10T03:38:49.312Z,6.30
2017-05-10T03:41:16.919Z,6.30
2017-05-10T03:43:44.023Z,6.30
2017-05-10T03:46:11.212Z,6.20
2017-05-10T03:48:37.970Z,6.30
2017-05-10T03:51:05.069Z,6.20
2017-05-10T03:53:31.862Z,6.10
2017-05-10T03:55:59.084Z,6.30
2017-05-10T03:58:26.635Z,6.30
2017-05-10T04:00:54.776Z,6.30
2017-05-10T04:03:23.767Z,6.30
2017-05-10T04:05:50.864Z,6.30
2017-05-10T04:08:18.033Z,6.40
2017-05-10T04:10:44.820Z,6.30
2017-05-10T04:13:11.829Z,6.20
2017-05-10T04:15:38.293Z,6.20
2017-05-10T04:18:05.156Z,6.20
2017-05-10T04:20:31.851Z,6.20
2017-05-10T04:22:59.159Z,6.20
2017-05-10T04:25:27.189Z,6.20
2017-05-10T04:27:55.673Z,6.30
2017-05-10T04:30:22.525Z,6.30
2017-05-10T04:32:50.703Z,6.20
2017-05-10T04:35:17.964Z,6.20
2017-05-10T04:37:45.122Z,6.00
2017-05-10T04:40:13.747Z,5.90
2017-05-10T04:42:42.192Z,6.10
2017-05-10T04:45:09.011Z,6.20
2017-05-10T04:47:36.102Z,6.30
2017-05-10T04:50:04.125Z,6.40
2017-05-10T04:52:31.991Z,6.50
2017-05-10T04:54:58.588Z,6.50
2017-05-10T04:57:27.372Z,6.60
2017-05-10T04:59:54.447Z,6.70
2017-05-10T05:02:22.363Z,6.90
2017-05-10T05:04:50.186Z,6.90
2017-05-10T05:07:17.057Z,7.10
2017-05-10T05:09:44.659Z,7.10
2017-05-10T05:12:11.405Z,7.10
2017-05-10T05:14:38.523Z,7.40
2017-05-10T05:17:06.352Z,7.40
2017-05-10T05:19:33.736Z,7.40
2017-05-10T05:22:01.724Z,7.50
2017-05-10T05:24:28.476Z,7.60
2017-05-10T05:29:27.420Z,7.70
2017-05-10T05:31:55.322Z,7.80
2017-05-10T05:34:22.152Z,7.90
2017-05-10T05:36:50.313Z,8.10
2017-05-10T05:39:18.683Z,8.20
2017-05-10T05:41:45.413Z,8.20
2017-05-10T05:44:12.538Z,8.50
2017-05-10T05:46:39.277Z,8.40
2017-05-10T05:49:06.394Z,8.60
2017-05-10T05:51:34.649Z,8.70
2017-05-10T05:54:01.436Z,8.90
2017-05-10T05:56:28.632Z,8.90
2017-05-10T05:58:55.773Z,9.10
2017-05-10T06:01:23.848Z,9.20
2017-05-10T06:03:52.332Z,9.10
2017-05-10T06:06:19.463Z,9.10
2017-05-10T06:11:17.977Z,9.10
2017-05-10T06:13:45.479Z,9.30
2017-05-10T06:16:13.181Z,9.30
2017-05-10T06:18:41.723Z,9.40
2017-05-10T06:21:10.148Z,9.40
2017-05-10T06:23:36.589Z,9.40
2017-05-10T06:26:04.748Z,9.20
2017-05-10T06:31:03.870Z,9.30
2017-05-10T06:33:30.932Z,9.40
2017-05-10T06:36:00.776Z,9.60
2017-05-10T06:38:27.620Z,9.60
2017-05-10T06:40:54.845Z,9.60
2017-05-10T06:43:21.908Z,9.70
2017-05-10T06:45:48.699Z,9.70
2017-05-10T06:48:15.880Z,9.80
2017-05-10T06:50:43.527Z,9.90
2017-05-10T06:53:10.392Z,10.10
2017-05-10T06:55:38.464Z,10.10
2017-05-10T06:58:06.015Z,9.90
2017-05-10T07:00:32.856Z,10.10
2017-05-10T07:02:59.966Z,10.20
2017-05-10T07:05:29.085Z,10.40
2017-05-10T07:07:56.241Z,10.20
2017-05-10T07:10:30.190Z,10.00
2017-05-10T07:15:45.629Z,10.20
2017-05-10T07:18:15.515Z,10.10
2017-05-10T07:23:20.671Z,10.30
2017-05-10T07:31:03.673Z,10.40
2017-05-10T07:33:33.275Z,10.50
2017-05-10T07:38:43.592Z,10.40
2017-05-10T07:44:00.736Z,10.90
2017-05-10T07:49:09.131Z,11.00
2017-05-10T07:56:46.292Z,11.50
2017-05-10T07:59:14.039Z,11.50
2017-05-10T08:04:17.175Z,11.50
2017-05-10T08:06:48.113Z,11.70
2017-05-10T08:09:17.210Z,11.70
2017-05-10T08:22:04.374Z,11.80
2017-05-10T08:27:11.469Z,11.70
2017-05-10T08:29:38.918Z,11.70
2017-05-10T08:32:10.778Z,11.90
2017-05-10T08:34:39.743Z,12.20
2017-05-10T08:37:11.571Z,12.10
2017-05-10T08:39:56.852Z,12.10
2017-05-10T08:45:02.136Z,12.30
2017-05-10T08:50:23.989Z,12.60
2017-05-10T08:53:03.654Z,12.50
2017-05-10T08:55:34.259Z,12.50
2017-05-10T09:03:33.899Z,12.60
2017-05-10T09:14:12.522Z,12.80
2017-05-10T09:16:43.967Z,13.00
2017-05-10T09:24:35.531Z,13.20
2017-05-10T09:29:48.088Z,13.20
2017-05-10T09:34:54.402Z,13.20
2017-05-10T09:40:22.888Z,13.90
2017-05-10T09:50:51.806Z,14.30
2017-05-10T09:53:22.873Z,14.30
2017-05-10T09:55:56.352Z,14.50
2017-05-10T10:01:09.899Z,14.70
2017-05-10T10:03:49.873Z,14.70
2017-05-10T10:06:23.409Z,14.70
2017-05-10T10:08:59.317Z,14.80
2017-05-10T10:14:27.637Z,15.00
2017-05-10T10:22:07.640Z,15.40
2017-05-10T10:24:39.637Z,15.60
2017-05-10T10:29:55.798Z,15.90
2017-05-10T10:32:36.541Z,16.00
2017-05-10T10:37:57.569Z,16.30
2017-05-10T10:48:50.965Z,16.80
2017-05-10T10:51:27.066Z,16.90
2017-05-10T10:57:03.155Z,17.40
2017-05-10T10:59:41.072Z,17.70
2017-05-10T11:02:10.862Z,17.80
2017-05-10T11:07:13.596Z,18.20
2017-05-10T11:09:49.831Z,18.30
2017-05-10T11:14:57.412Z,18.50
2017-05-10T11:20:10.122Z,18.60
2017-05-10T11:22:43.447Z,19.00
2017-05-10T11:33:03.009Z,20.60
2017-05-10T11:49:11.035Z,27.40
2017-05-10T11:54:42.505Z,29.60
2017-05-10T12:17:51.547Z,31.00
2017-05-10T12:23:31.504Z,31.70
2017-05-10T12:53:10.720Z,34.60
2017-05-10T12:55:38.365Z,35.10
2017-05-10T12:58:05.554Z,35.00
2017-05-10T13:00:34.038Z,34.60
2017-05-10T13:03:02.334Z,34.60
2017-05-10T13:05:29.917Z,34.50
2017-05-10T13:07:57.154Z,34.90
2017-05-10T13:10:25.346Z,36.00
2017-05-10T13:12:53.891Z,36.60
2017-05-10T13:15:23.174Z,36.40
2017-05-10T13:17:50.414Z,36.10
2017-05-10T13:20:17.226Z,35.70
2017-05-10T13:22:45.240Z,35.90
2017-05-10T13:25:12.022Z,35.90
2017-05-10T13:27:40.126Z,36.50
2017-05-10T13:30:07.024Z,36.50
2017-05-10T13:32:35.565Z,36.60
2017-05-10T13:35:04.345Z,36.30
2017-05-10T13:37:34.272Z,36.30
2017-05-10T13:40:04.293Z,36.80
2017-05-10T13:42:32.407Z,36.80
2017-05-10T13:44:58.973Z,36.70
2017-05-10T13:47:26.100Z,36.60
2017-05-10T13:49:53.250Z,36.70
2017-05-10T13:52:23.059Z,36.80
2017-05-10T13:54:51.624Z,36.70
2017-05-10T13:57:20.662Z,35.80
2017-05-10T13:59:49.496Z,35.20
2017-05-10T14:02:16.304Z,35.00
2017-05-10T14:04:48.935Z,34.70
2017-05-10T14:07:19.266Z,35.20
2017-05-10T14:09:48.233Z,35.60
2017-05-10T14:12:23.590Z,35.90
2017-05-10T14:14:51.364Z,35.20
2017-05-10T14:17:21.122Z,34.90
2017-05-10T14:19:49.479Z,35.20
2017-05-10T14:22:17.789Z,35.20
2017-05-10T14:24:45.587Z,35.20
2017-05-10T14:27:14.148Z,35.20
2017-05-10T14:29:48.144Z,34.70
2017-05-10T14:32:26.860Z,34.70
2017-05-10T14:34:56.580Z,33.90
2017-05-10T14:37:24.753Z,33.90
2017-05-10T14:39:51.529Z,34.40
2017-05-10T14:42:20.796Z,34.40
2017-05-10T14:44:51.920Z,34.80
2017-05-10T14:47:23.281Z,34.80
2017-05-10T14:49:52.794Z,34.30
2017-05-10T14:52:21.861Z,34.00
2017-05-10T14:54:50.610Z,33.80
2017-05-10T14:57:21.010Z,33.70
2017-05-10T14:59:48.145Z,33.60
2017-05-10T15:07:36.876Z,33.30
2017-05-10T15:10:06.756Z,33.60
2017-05-10T15:12:37.350Z,33.40
2017-05-10T15:15:05.250Z,33.30
2017-05-10T15:17:32.627Z,33.30
2017-05-10T15:20:03.999Z,32.80
2017-05-10T15:22:33.782Z,32.50
2017-05-10T15:25:02.267Z,32.50
2017-05-10T15:27:30.970Z,32.10
2017-05-10T15:30:00.217Z,32.00
2017-05-10T15:32:28.429Z,32.30
2017-05-10T15:34:56.729Z,32.20
2017-05-10T15:37:26.712Z,33.10
2017-05-10T15:39:56.001Z,33.40
2017-05-10T15:42:24.328Z,33.40
2017-05-10T15:44:52.044Z,33.30
2017-05-10T15:47:19.322Z,32.90
2017-05-10T15:49:49.767Z,32.70
2017-05-10T15:52:18.600Z,32.30
2017-05-10T15:54:46.181Z,32.30
2017-05-10T15:57:13.062Z,31.60
2017-05-10T15:59:41.924Z,31.30
2017-05-10T16:02:10.998Z,31.10
2017-05-10T16:04:38.675Z,31.00
2017-05-10T16:07:07.853Z,30.90
2017-05-10T16:09:35.095Z,30.90
2017-05-10T16:12:05.531Z,31.10
2017-05-10T16:14:35.406Z,30.70
2017-05-10T16:17:02.569Z,30.30
2017-05-10T16:19:31.508Z,29.70
2017-05-10T16:22:02.728Z,29.50
2017-05-10T16:24:32.565Z,29.70
2017-05-10T16:27:06.355Z,29.70
2017-05-10T16:29:33.774Z,28.40
2017-05-10T16:32:02.388Z,28.20
2017-05-10T16:34:32.407Z,27.90
2017-05-10T16:37:00.409Z,27.80
2017-05-10T16:39:29.665Z,27.80
2017-05-10T16:42:00.297Z,27.70
2017-05-10T16:44:30.323Z,27.50
2017-05-10T16:47:04.039Z,27.50
2017-05-10T16:49:31.013Z,26.90
2017-05-10T16:52:01.547Z,26.60
2017-05-10T16:54:32.130Z,26.40
2017-05-10T16:56:59.396Z,26.40
2017-05-10T16:59:26.507Z,26.00
2017-05-10T17:01:56.208Z,25.40
2017-05-10T17:04:23.192Z,24.70
2017-05-10T17:06:53.556Z,24.20
2017-05-10T17:15:24.213Z,22.50
2017-05-10T17:29:49.463Z,21.00
2017-05-10T17:41:13.362Z,20.30
2017-05-10T17:43:40.515Z,20.30
2017-05-10T17:46:09.298Z,20.10
2017-05-10T17:48:40.481Z,20.00
2017-05-10T17:51:08.403Z,19.90
2017-05-10T17:53:36.170Z,19.90
2017-05-10T17:56:04.739Z,19.70
2017-05-10T17:58:36.394Z,19.60
2017-05-10T18:01:03.518Z,19.50
2017-05-10T18:03:32.264Z,19.50
2017-05-10T18:06:11.515Z,19.40
2017-05-10T18:08:38.311Z,19.40
2017-05-10T18:11:06.344Z,19.30
2017-05-10T18:13:33.987Z,19.20
2017-05-10T18:16:01.440Z,19.20
2017-05-10T18:18:29.581Z,18.90
2017-05-10T18:20:56.467Z,18.80
2017-05-10T18:23:22.918Z,18.80
2017-05-10T18:25:49.886Z,18.50
2017-05-10T18:28:17.562Z,18.30
2017-05-10T18:30:46.432Z,18.20
2017-05-10T18:33:13.563Z,18.10
2017-05-10T18:35:41.505Z,17.90
2017-05-10T18:40:49.392Z,17.60
2017-05-10T18:43:26.959Z,17.50
2017-05-10T18:45:57.096Z,17.50
2017-05-10T18:56:36.160Z,17.00
2017-05-10T19:02:11.732Z,16.50
2017-05-10T19:04:46.088Z,16.50
2017-05-10T19:12:30.382Z,16.20
2017-05-10T19:15:00.917Z,16.00
2017-05-10T19:17:32.006Z,16.00
2017-05-10T19:34:29.820Z,15.20
2017-05-10T19:37:08.407Z,14.80
2017-05-10T19:39:39.269Z,14.70
2017-05-10T19:56:50.811Z,13.90
2017-05-10T20:01:53.179Z,13.80
2017-05-10T20:07:09.216Z,13.70
2017-05-10T20:09:52.165Z,13.60
2017-05-10T20:31:16.333Z,13.00
2017-05-10T20:44:35.641Z,13.10
2017-05-10T20:47:11.108Z,13.10
2017-05-10T21:00:26.054Z,12.50
2017-05-10T21:05:43.002Z,12.50
2017-05-10T21:13:27.649Z,12.30
2017-05-10T21:21:02.767Z,12.20
2017-05-10T21:26:08.535Z,12.10
2017-05-10T21:28:40.292Z,12.20
2017-05-10T21:31:14.976Z,12.10
2017-05-10T21:33:54.061Z,12.10
2017-05-10T21:41:57.737Z,12.00
2017-05-10T21:49:53.471Z,11.80
2017-05-10T21:58:04.060Z,11.40
2017-05-10T22:18:52.821Z,11.60
2017-05-10T22:23:57.932Z,11.50
2017-05-10T22:26:32.684Z,11.40
2017-05-10T22:31:35.685Z,11.40
2017-05-10T22:44:24.089Z,11.40
2017-05-10T22:46:55.476Z,11.00
2017-05-10T22:49:27.092Z,11.00
2017-05-10T22:51:58.213Z,10.90
2017-05-10T22:57:00.543Z,11.00
2017-05-10T23:04:47.080Z,11.20
2017-05-10T23:15:07.280Z,11.20
2017-05-10T23:17:34.587Z,11.20
2017-05-10T23:30:33.886Z,10.60
2017-05-10T23:41:07.026Z,10.70
2017-05-10T23:43:37.428Z,10.70
2017-05-10T23:54:01.959Z,10.70
2017-05-10T23:56:39.179Z,10.70
2017-05-10T23:59:08.697Z,10.70
